Terminal Aerodrome Forecast
Issued by NWS Cleveland, OH

Home | Current Version | Previous Version | Text Only | Print | Product List | Glossary Off
Versions: 1 2 3 4 5 6 7 8 9 10 11 12 13 14 15 16 17 18 19 20 21 22 23 24 25 26 27

507
FTUS41 KCLE 022328
TAFCLE
TAF
KCLE 022328Z 0300/0406 27011KT P6SM VCSH SCT018 OVC035
      TEMPO 0300/0302 BKN018
     FM031100 27009KT P6SM VCSH OVC020
     FM032000 28009KT P6SM OVC035=

USA.gov is the U.S. government's official web portal to all federal, state and local government web resources and services.